Tonopah, Nevada Weather observations

Data are for observation ending at time listed.
 Day   Time    Ave.   Ave.  Ave.  Vector   Max.   Stn.    Total    Solar   Ave.  
  of    of     Air    Rel.  Wind   Wind    Wind   Baro.  Precip.   Rad.    Soil  
Year   Day     Temp.  Hum.  Speed  Dir.    Gust   Pres.                    Temp. 
2016   (PST)    F      %     mph   deg.    mph     mb.     in.     W/m2     F   
------------------------------------------------------------------------------
 268   11:50   62.2    30    9.9   297     17.4   819.5    0.00     872    61.8
 268   12:00   62.5    30   10.8   304     18.6   819.5    0.00     868    62.2
 268   12:10   62.9    30   10.3   301     16.9   819.4    0.00     864    62.6
 268   12:20   63.5    29   10.5   292     17.3   819.3    0.00     861    62.9
 268   12:30   63.7    28   11.3   308     18.6   819.4    0.00     851    63.3
 268   12:40   63.9    28   10.3   303     20.7   819.4    0.00     844    63.7
 268   12:50   64.3    28    9.7   314     15.8   819.4    0.00     828    64.1
 268   13:00   64.4    28    9.8   303     20.4   819.4    0.00     820    64.4
 268   13:10   64.5    28   10.3   301     20.4   819.3    0.00     807    64.7
 268   13:20   64.7    28    9.3   284     14.8   819.2    0.00     796    65.1
 268   13:30   65.6    27    9.4   310     17.2   819.2    0.00     772    65.4
 268   13:40   65.7    27   10.4   301     18.9   819.2    0.00     755    65.7
 268   13:50   65.9    27   10.8   301     18.6   819.2    0.00     736    66.0
 268   14:00   65.9    26   10.8   286     18.3   819.2    0.00     716    66.3
 268   14:10   66.2    27   11.1   292     21.0   819.2    0.00     692    66.6
 268   14:20   66.3    26   12.4   304     19.9   819.1    0.00     664    66.8
 268   14:30   66.3    26   12.8   294     19.3   819.1    0.00     642    67.0
 268   14:40   66.9    25   11.2   308     19.1   819.1    0.00     611    67.2
 268   14:50   67.0    25   11.9   293     20.1   819.0    0.00     587    67.4
 268   15:00   67.6    24   10.9   286     19.9   819.1    0.00     558    67.5
 268   15:10   67.2    24   10.7   293     18.9   819.2    0.00     525    67.6
 268   15:20   67.8    23   10.9   287     19.6   819.1    0.00     494    67.7
 268   15:30   67.7    23   12.0   291     20.1   819.0    0.00     462    67.7
 268   15:40   67.7    23   11.8   296     19.5   819.1    0.00     428    67.7
 268   15:50   67.4    24   11.8   293     21.5   819.0    0.00     394    67.7
 268   16:00   67.6    24   11.8   294     19.7   819.1    0.00     358    67.6
 268   16:10   67.6    24   10.4   297     15.6   819.1    0.00     322    67.5
 268   16:20   67.6    24   11.7   294     19.6   819.1    0.00     287    67.4
 268   16:30   67.2    24   12.1   295     23.2   819.1    0.00     251    67.2
 268   16:40   67.3    24   11.0   301     19.4   819.3    0.00     215    67.1
 268   16:50   66.8    24   10.8   305     17.4   819.3    0.00     179    67.0
 268   17:00   66.4    24   12.4   311     22.9   819.3    0.00     145    66.8
 268   17:10   66.6    24   10.3   302     17.7   819.3    0.00     110    66.7
 268   17:20   65.9    25   10.8   303     18.3   819.3    0.00      69    66.5
 268   17:30   65.2    25    9.4   305     16.1   819.4    0.00      39    66.4
 268   17:40   64.8    25    9.8   303     17.2   819.5    0.00      10    66.2
 268   17:50   64.3    25    9.1   295     15.8   819.6    0.00       4    66.1
 268   18:00   63.6    26    9.1   297     14.0   819.7    0.00       2    65.9
 268   18:10   63.0    26    8.2   294     12.1   819.7    0.00       0    65.7
 268   18:20   62.4    27    7.3   299     13.0   819.8    0.00       0    65.6
 268   18:30   61.9    27    7.1   298     10.8   819.9    0.00       0    65.4
 268   18:40   61.2    28    6.1   301      8.6   820.0    0.00       0    65.3
 268   18:50   60.7    29    6.4   304      9.7   820.1    0.00       0    65.1
 268   19:00   60.2    30    5.9   299      9.6   820.3    0.00       0    64.9
 268   19:10   59.5    30    5.0   292      7.7   820.5    0.00       0    64.8
 268   19:20   59.2    30    4.9   308     11.7   820.7    0.00       0    64.6
 268   19:30   60.6    28   11.1   329     18.9   820.8    0.00       0    64.5
 268   19:40   61.3    28   10.5   337     18.3   821.0    0.00       0    64.3
 268   19:50   61.4    27   11.2   343     19.8   821.1    0.00       0    64.1
 268   20:00   61.3    27    9.2   340     14.5   821.3    0.00       0    64.0
 268   20:10   61.2    26    7.6   312     15.6   821.4    0.00       0    63.8
 268   20:20   59.3    30    4.6   251      9.6   821.4    0.00       0    63.7
 268   20:30   59.4    28    4.0   252      9.5   821.5    0.00       0    63.5
 268   20:40   58.6    30    3.5   262      5.6   821.6    0.00       0    63.4
 268   20:50   57.6    31    2.2   234      5.1   821.6    0.00       0    63.3
 268   21:00   56.5    33    1.4   295      3.4   821.6    0.00       0    63.2
 268   21:10   55.7    35    2.4   302      4.6   821.8    0.00       0    63.0
 268   21:20   55.3    36    2.9   262      5.8   821.9    0.00       0    62.9
 268   21:30   55.0    36    2.8   270      6.6   821.8    0.00       0    62.7
 268   21:40   55.0    37    3.1   280      7.4   821.8    0.00       0    62.6
 268   21:50   54.1    38    1.6   278      2.2   821.8    0.00       0    62.4
 268   22:00   53.3    39    1.4   277      2.7   821.8    0.00       0    62.2
 268   22:10   52.4    41    0.8   250      1.8   821.8    0.00       0    62.1
 268   22:20   51.5    42    1.4   275      3.3   821.8    0.00       0    61.9
 268   22:30   52.0    41    2.7   248      3.9   821.7    0.00       0    61.8
 268   22:40   52.3    40    2.4   251      4.2   821.7    0.00       0    61.6
 268   22:50   51.5    41    1.2   231      2.7   821.6    0.00       0    61.4
 268   23:00   50.5    43    2.3   296      4.5   821.6    0.00       0    61.3
 268   23:10   50.6    42    4.1   291      6.8   821.7    0.00       0    61.1
 268   23:20   51.5    39    4.0   291      6.7   821.7    0.00       0    61.0
 268   23:30   50.9    41    0.9   274      3.1   821.8    0.00       0    60.8
 268   23:40   49.1    43    1.7    28      3.8   821.8    0.00       0    60.7
 268   23:50   49.1    43    1.0   223      2.0   821.9    0.00       0    60.5
 269    0:00   48.8    43    1.1    72      2.5   821.9    0.00       0    60.4
 269    0:10   48.1    44    1.0   105      3.3   821.8    0.00       0    60.2
 269    0:20   48.5    43    1.6   131      3.9   821.9    0.00       0    60.1
 269    0:30   47.6    45    0.7    94      2.8   822.0    0.00       0    60.0
 269    0:40   47.1    45    1.3   102      2.4   821.9    0.00       0    59.8
 269    0:50   47.4    44    3.2   140      4.8   822.0    0.00       0    59.7
 269    1:00   47.3    44    2.0   119      4.0   822.0    0.00       0    59.5
 269    1:10   47.8    43    3.2   119      5.0   822.0    0.00       0    59.4
 269    1:20   51.4    35    4.0   175      9.6   822.1    0.00       0    59.2
 269    1:30   53.8    31    2.5   271      5.8   822.2    0.00       0    59.1
 269    1:40   52.3    33    2.8   100      7.5   822.2    0.00       0    58.9
 269    1:50   54.4    30    4.5    17     10.1   822.2    0.00       0    58.8
 269    2:00   55.0    29    2.0   270      5.0   822.2    0.00       0    58.7
 269    2:10   54.6    29    3.2    23      8.8   822.2    0.00       0    58.6
 269    2:20   55.3    28    6.3    14     13.2   822.1    0.00       0    58.5
 269    2:30   55.8    27    5.7     7     10.6   822.0    0.00       0    58.4
 269    2:40   55.9    28    6.9    11     10.7   822.1    0.00       0    58.3
 269    2:50   54.1    31    4.4     2     10.4   822.1    0.00       0    58.2
 269    3:00   52.0    33    1.4    18      2.9   822.0    0.00       0    58.1
 269    3:10   50.2    36    2.1   236      4.7   822.0    0.00       0    58.0
 269    3:20   49.7    37    1.5    24      3.2   822.0    0.00       0    58.0
 269    3:30   50.9    34    1.4   272      3.2   822.1    0.00       0    57.9
 269    3:40   51.2    34    0.8    17      2.9   822.2    0.00       0    57.8
 269    3:50   50.0    35    1.2   297      3.0   822.3    0.00       0    57.7
 269    4:00   51.2    34    2.5   335      6.9   822.4    0.00       0    57.6
 269    4:10   52.4    32    3.4   353      8.0   822.4    0.00       0    57.5
 269    4:20   54.3    30    9.6     1     15.0   822.4    0.00       0    57.4
 269    4:30   53.9    31    7.5   337     12.5   822.5    0.00       0    57.3
 269    4:40   53.3    31    4.5   339      8.1   822.5    0.00       0    57.2
 269    4:50   52.3    33    5.3   260     11.1   822.5    0.00       0    57.1
 269    5:00   50.0    38    2.2   300      7.7   822.5    0.00       0    57.1
 269    5:10   48.6    40    2.6   274      5.2   822.6    0.00       0    57.0
 269    5:20   47.6    44    3.8   291      6.2   822.6    0.00       0    56.9
 269    5:30   46.6    46    3.5   294      6.1   822.6    0.00       1    56.9
 269    5:40   46.2    47    2.1   304      4.3   822.7    0.00       4    56.8
 269    5:50   45.5    48    0.8    31      2.0   822.7    0.00       5    56.7
 269    6:00   44.7    49    0.6    67      1.9   822.8    0.00      11    56.7
 269    6:10   47.1    43    3.5   266      9.3   822.9    0.00      33    56.6
 269    6:20   51.9    35    5.4   269      8.5   823.0    0.00      75    56.5
 269    6:30   52.7    35    4.8   276      7.6   823.1    0.00     117    56.4
 269    6:40   53.4    34    6.6   267      9.9   823.2    0.00     153    56.3
 269    6:50   53.7    34    6.7   285      9.4   823.2    0.00     186    56.3
 269    7:00   53.7    34    7.4   292     11.5   823.3    0.00     221    56.3
 269    7:10   53.7    34    7.1   291     10.7   823.3    0.00     257    56.3
 269    7:20   53.9    34    7.1   281     11.7   823.3    0.00     292    56.3
 269    7:30   54.4    34    7.4   284     11.2   823.4    0.00     327    56.4
 269    7:40   55.1    33    7.6   291     11.8   823.4    0.00     363    56.5
 269    7:50   56.0    32    7.5   305     11.5   823.5    0.00     398    56.6
 269    8:00   56.6    31    8.3   306     12.9   823.5    0.00     432    56.7
 269    8:10   56.8    31    8.6   294     13.6   823.5    0.00     464    56.9
 269    8:20   57.4    30    6.5   286     11.0   823.4    0.00     496    57.1
 269    8:30   58.4    29    5.6   282      8.8   823.6    0.00     527    57.3
 269    8:40   59.5    28    5.5   313      8.2   823.5    0.00     560    57.5
 269    8:50   59.9    28    7.1   304     10.5   823.4    0.00     588    57.8
 269    9:00   60.1    28    6.1   286      8.9   823.3    0.00     615    58.1
 269    9:10   61.1    26    5.7   267      8.8   823.4    0.00     644    58.4
 269    9:20   61.1    27    8.1   291     12.6   823.4    0.00     666    58.7
 269    9:30   60.9    27    8.8   290     12.3   823.4    0.00     691    59.1
 269    9:40   61.3    26    8.6   296     13.5   823.4    0.00     713    59.5
 269    9:50   62.1    24    9.3   297     15.7   823.4    0.00     735    59.8
 269   10:00   63.7    21    9.0   296     19.5   823.3    0.00     754    60.1
 269   10:10   64.4    18   11.9   292     20.0   823.2    0.00     773    60.5
 269   10:20   64.4    19   12.6   289     20.1   823.1    0.00     791    60.8
 269   10:30   64.6    18   13.2   295     21.4   823.0    0.00     805    61.2
 269   10:40   65.1    17   12.7   295     19.9   822.9    0.00     819    61.6
 269   10:50   65.5    16   13.3   300     21.8   822.8    0.00     830    61.9
 269   11:00   66.1    16   11.6   289     20.0   822.8    0.00     840    62.3
 269   11:10   66.5    16   12.6   297     20.2   822.7    0.00     845    62.7
 269   11:20   66.8    16   12.5   299     19.4   822.7    0.00     853    63.0
 269   11:30   67.3    15   12.4   298     18.3   822.6    0.00     859    63.4
 269   11:40   68.2    15   10.7   295     19.6   822.5    0.00     860    63.8

Return to Tonopah, Nevada graphs page.


Western Regional Climate Center,wrcc@dri.edu